createdAt,value
2023-03-10T00:00:39.848Z,15.73
2023-03-10T00:03:06.951Z,13.18
2023-03-10T00:05:34.104Z,19.05
2023-03-10T00:08:00.989Z,15.07
2023-03-10T00:10:27.885Z,10.73
2023-03-10T00:12:54.793Z,8.88
2023-03-10T00:15:22.039Z,9.43
2023-03-10T00:17:55.552Z,14.02
2023-03-10T00:20:23.353Z,12.45
2023-03-10T00:22:50.411Z,11.63
2023-03-10T00:25:17.346Z,10.30
2023-03-10T00:27:44.154Z,12.45
2023-03-10T00:30:11.453Z,12.75
2023-03-10T00:32:38.355Z,12.88
2023-03-10T00:35:06.364Z,9.75
2023-03-10T00:37:36.651Z,9.35
2023-03-10T00:40:04.993Z,15.73
2023-03-10T00:42:31.777Z,11.45
2023-03-10T00:44:58.633Z,13.20
2023-03-10T00:47:25.532Z,12.82
2023-03-10T00:49:52.512Z,11.13
2023-03-10T00:52:19.310Z,12.43
2023-03-10T00:54:46.211Z,9.43
2023-03-10T00:57:13.106Z,9.95
2023-03-10T00:59:50.101Z,9.10
2023-03-10T01:02:18.888Z,14.15
2023-03-10T01:04:46.638Z,11.52
2023-03-10T01:07:13.474Z,11.43
2023-03-10T01:09:42.856Z,10.68
2023-03-10T01:12:09.819Z,9.70
2023-03-10T01:14:37.036Z,10.95
2023-03-10T01:17:05.350Z,10.45
2023-03-10T01:19:32.153Z,9.93
2023-03-10T01:21:58.966Z,10.02
2023-03-10T01:24:25.881Z,12.15
2023-03-10T01:26:52.722Z,11.98
2023-03-10T01:29:19.598Z,12.25
2023-03-10T01:31:46.823Z,10.45
2023-03-10T01:34:13.776Z,10.90
2023-03-10T01:36:42.392Z,11.38
2023-03-10T01:39:09.469Z,11.38
2023-03-10T01:41:41.257Z,11.25
2023-03-10T01:44:15.527Z,11.52
2023-03-10T01:46:46.505Z,10.63
2023-03-10T01:49:21.746Z,10.63
2023-03-10T01:51:56.712Z,10.73
2023-03-10T01:54:29.025Z,10.25
2023-03-10T01:56:57.258Z,11.60
2023-03-10T01:59:26.139Z,11.77
2023-03-10T02:01:53.163Z,11.07
2023-03-10T02:04:32.598Z,9.45
2023-03-10T02:07:01.278Z,12.88
2023-03-10T02:09:29.053Z,9.25
2023-03-10T02:11:58.534Z,12.93
2023-03-10T02:14:25.848Z,11.45
2023-03-10T02:16:52.654Z,10.55
2023-03-10T02:19:54.706Z,9.75
2023-03-10T02:22:21.740Z,10.30
2023-03-10T02:25:27.950Z,10.77
2023-03-10T02:27:55.362Z,8.73
2023-03-10T02:30:32.683Z,8.93
2023-03-10T02:33:04.769Z,11.27
2023-03-10T02:35:31.672Z,10.40
2023-03-10T02:37:59.488Z,8.93
2023-03-10T02:40:42.852Z,6.88
2023-03-10T02:43:23.994Z,16.38
2023-03-10T02:45:52.301Z,9.50
2023-03-10T02:48:28.371Z,9.27
2023-03-10T02:50:57.133Z,9.43
2023-03-10T02:53:26.847Z,7.50
2023-03-10T02:55:54.797Z,20.10
2023-03-10T02:58:22.727Z,7.97
2023-03-10T03:00:50.612Z,9.13
2023-03-10T03:03:19.488Z,11.43
2023-03-10T03:05:46.806Z,8.30
2023-03-10T03:08:13.720Z,11.02
2023-03-10T03:10:40.608Z,11.52
2023-03-10T03:13:07.986Z,10.43
2023-03-10T03:15:35.143Z,11.82
2023-03-10T03:18:02.310Z,10.93
2023-03-10T03:20:31.445Z,9.45
2023-03-10T03:22:58.637Z,7.95
2023-03-10T03:25:28.098Z,10.68
2023-03-10T03:27:55.620Z,12.95
2023-03-10T03:30:25.275Z,11.98
2023-03-10T03:32:53.706Z,10.80
2023-03-10T03:35:24.685Z,10.10
2023-03-10T03:37:52.800Z,11.38
2023-03-10T03:40:21.113Z,9.10
2023-03-10T03:42:50.734Z,8.82
2023-03-10T03:45:19.805Z,11.43
2023-03-10T03:47:47.168Z,11.07
2023-03-10T03:50:17.207Z,12.90
2023-03-10T03:52:44.942Z,10.18
2023-03-10T03:55:14.230Z,13.95
2023-03-10T03:57:42.740Z,13.88
2023-03-10T04:00:14.331Z,11.90
2023-03-10T04:02:41.230Z,13.60
2023-03-10T04:05:08.854Z,10.95
2023-03-10T04:07:38.065Z,12.35
2023-03-10T04:10:05.473Z,12.50
2023-03-10T04:12:32.284Z,14.73
2023-03-10T04:14:59.070Z,12.13
2023-03-10T04:17:26.053Z,12.70
2023-03-10T04:20:06.321Z,13.93
2023-03-10T04:22:34.145Z,12.45
2023-03-10T04:25:00.997Z,15.48
2023-03-10T04:27:27.873Z,10.40
2023-03-10T04:29:54.850Z,12.32
2023-03-10T04:32:21.764Z,13.95
2023-03-10T04:34:48.756Z,10.95
2023-03-10T04:37:15.658Z,10.77
2023-03-10T04:39:42.669Z,11.60
2023-03-10T04:42:09.587Z,10.73
2023-03-10T04:44:36.440Z,8.55
2023-03-10T04:47:03.455Z,8.50
2023-03-10T04:49:30.437Z,10.60
2023-03-10T04:51:57.243Z,11.98
2023-03-10T04:54:24.143Z,10.07
2023-03-10T04:56:50.979Z,16.02
2023-03-10T04:59:18.035Z,10.18
2023-03-10T05:01:45.003Z,9.80
2023-03-10T05:04:11.908Z,8.27
2023-03-10T05:06:38.970Z,6.20
2023-03-10T05:09:05.983Z,10.57
2023-03-10T05:11:32.822Z,8.80
2023-03-10T05:13:59.671Z,8.73
2023-03-10T05:16:26.540Z,7.95
2023-03-10T05:18:53.863Z,6.30
2023-03-10T05:21:21.915Z,9.40
2023-03-10T05:23:49.675Z,10.43
2023-03-10T05:26:17.042Z,7.15
2023-03-10T05:28:44.131Z,10.80
2023-03-10T05:31:14.241Z,10.23
2023-03-10T05:33:41.703Z,9.13
2023-03-10T05:36:11.693Z,8.23
2023-03-10T05:38:38.870Z,7.68
2023-03-10T05:41:10.088Z,9.38
2023-03-10T05:43:38.225Z,11.75
2023-03-10T05:46:06.168Z,7.15
2023-03-10T05:48:33.287Z,5.93
2023-03-10T05:51:01.687Z,9.18
2023-03-10T05:53:30.003Z,9.48
2023-03-10T05:55:57.569Z,9.32
2023-03-10T05:58:25.984Z,7.43
2023-03-10T06:00:53.194Z,7.30
2023-03-10T06:03:20.553Z,12.27
2023-03-10T06:05:47.743Z,8.38
2023-03-10T06:08:14.614Z,8.90
2023-03-10T06:10:41.738Z,6.90
2023-03-10T06:13:08.575Z,13.90
2023-03-10T06:15:35.469Z,9.77
2023-03-10T06:18:02.329Z,8.23
2023-03-10T06:20:29.189Z,8.00
2023-03-10T06:22:56.011Z,7.55
2023-03-10T06:25:22.806Z,9.75
2023-03-10T06:27:49.646Z,8.40
2023-03-10T06:30:16.907Z,8.02
2023-03-10T06:32:43.904Z,8.77
2023-03-10T06:35:13.346Z,7.60
2023-03-10T06:37:40.795Z,8.93
2023-03-10T06:40:10.123Z,8.43
2023-03-10T06:42:36.994Z,10.98
2023-03-10T06:45:04.751Z,7.30
2023-03-10T06:47:31.676Z,10.48
2023-03-10T06:49:58.536Z,11.35
2023-03-10T06:52:25.811Z,10.02
2023-03-10T06:54:52.624Z,9.48
2023-03-10T06:57:21.043Z,8.52
2023-03-10T06:59:47.952Z,13.25
2023-03-10T07:02:14.872Z,13.63
2023-03-10T07:04:41.834Z,11.65
2023-03-10T07:07:08.679Z,13.25
2023-03-10T07:09:35.768Z,10.05
2023-03-10T07:12:02.634Z,11.48
2023-03-10T07:14:29.826Z,11.70
2023-03-10T07:16:56.882Z,10.25
2023-03-10T07:19:23.790Z,16.85
2023-03-10T07:21:50.599Z,11.82
2023-03-10T07:24:18.108Z,17.38
2023-03-10T07:26:45.304Z,16.73
2023-03-10T07:29:12.269Z,15.38
2023-03-10T07:31:39.359Z,10.82
2023-03-10T07:34:06.270Z,14.63
2023-03-10T07:36:33.187Z,13.50
2023-03-10T07:39:00.157Z,15.05
2023-03-10T07:41:27.091Z,15.70
2023-03-10T07:43:54.701Z,13.65
2023-03-10T07:46:22.223Z,15.60
2023-03-10T07:48:49.570Z,14.18
2023-03-10T07:51:16.411Z,13.93
2023-03-10T07:53:43.284Z,17.55
2023-03-10T07:56:11.766Z,17.20
2023-03-10T07:58:39.558Z,15.00
2023-03-10T08:01:07.770Z,14.27
2023-03-10T08:03:34.957Z,14.05
2023-03-10T08:06:05.528Z,14.07
2023-03-10T08:08:32.573Z,16.55
2023-03-10T08:11:09.748Z,12.90
2023-03-10T08:13:37.859Z,19.15
2023-03-10T08:16:05.234Z,15.23
2023-03-10T08:18:33.018Z,15.60
2023-03-10T08:21:03.132Z,11.70
2023-03-10T08:23:30.151Z,15.40
2023-03-10T08:26:04.095Z,14.60
2023-03-10T08:28:31.140Z,15.88
2023-03-10T08:31:04.918Z,13.15
2023-03-10T08:33:33.304Z,11.57
2023-03-10T08:36:09.093Z,15.80
2023-03-10T08:38:36.570Z,12.88
2023-03-10T08:41:15.832Z,14.25
2023-03-10T08:43:43.347Z,16.83
2023-03-10T08:46:10.962Z,12.95
2023-03-10T08:48:39.724Z,14.32
2023-03-10T08:51:08.848Z,11.05
2023-03-10T08:53:38.738Z,12.05
2023-03-10T08:56:06.361Z,14.15
2023-03-10T08:58:33.656Z,11.25
2023-03-10T09:01:01.044Z,12.80
2023-03-10T09:03:31.355Z,14.63
2023-03-10T09:05:58.575Z,11.77
2023-03-10T09:08:27.562Z,16.15
2023-03-10T09:10:55.004Z,13.10
2023-03-10T09:13:22.483Z,12.85
2023-03-10T09:15:50.604Z,11.95
2023-03-10T09:18:17.638Z,16.10
2023-03-10T09:20:45.849Z,12.73
2023-03-10T09:23:14.116Z,11.65
2023-03-10T09:25:43.681Z,12.15
2023-03-10T09:28:12.060Z,16.95
2023-03-10T09:30:41.260Z,11.13
2023-03-10T09:33:14.194Z,14.93
2023-03-10T09:35:41.703Z,13.38
2023-03-10T09:38:08.993Z,13.32
2023-03-10T09:40:38.110Z,14.60
2023-03-10T09:43:14.322Z,11.95
2023-03-10T09:46:05.059Z,15.63
2023-03-10T09:48:41.930Z,15.70
2023-03-10T09:51:16.630Z,13.65
2023-03-10T09:53:48.081Z,11.52
2023-03-10T09:56:20.014Z,16.17
2023-03-10T09:59:14.776Z,12.88
2023-03-10T10:01:45.126Z,16.65
2023-03-10T10:04:19.616Z,13.52
2023-03-10T10:06:47.954Z,15.68
2023-03-10T10:09:17.722Z,14.65
2023-03-10T10:11:44.576Z,12.68
2023-03-10T10:14:27.901Z,14.68
2023-03-10T10:19:28.151Z,12.93
2023-03-10T10:22:07.097Z,12.57
2023-03-10T10:24:34.733Z,16.23
2023-03-10T10:27:01.550Z,17.98
2023-03-10T10:29:36.895Z,14.93
2023-03-10T10:32:05.417Z,12.50
2023-03-10T10:34:33.205Z,13.15
2023-03-10T10:37:00.708Z,19.10
2023-03-10T10:39:42.970Z,17.15
2023-03-10T10:42:31.168Z,15.65
2023-03-10T10:45:02.202Z,15.73
2023-03-10T10:47:32.192Z,14.30
2023-03-10T10:50:22.748Z,16.05
2023-03-10T10:52:53.268Z,17.55
2023-03-10T10:55:35.223Z,14.82
2023-03-10T10:58:04.733Z,13.35
2023-03-10T11:00:34.816Z,16.60
2023-03-10T11:03:01.626Z,19.65
2023-03-10T11:05:37.142Z,15.63
2023-03-10T11:08:42.948Z,17.95
2023-03-10T11:11:18.972Z,14.70
2023-03-10T11:14:05.239Z,16.38
2023-03-10T11:17:01.990Z,12.82
2023-03-10T11:19:41.000Z,14.88
2023-03-10T11:22:22.875Z,20.00
2023-03-10T11:25:28.394Z,21.15
2023-03-10T11:28:12.890Z,12.95
2023-03-10T11:33:37.012Z,16.45
2023-03-10T11:36:30.032Z,17.88
2023-03-10T11:39:17.685Z,17.42
2023-03-10T11:41:51.516Z,17.33
2023-03-10T11:44:43.868Z,14.88
2023-03-10T11:47:41.890Z,15.82
2023-03-10T11:50:36.029Z,12.50
2023-03-10T11:53:12.574Z,17.13
2023-03-10T11:55:42.738Z,16.23
2023-03-10T11:58:23.304Z,14.77
2023-03-10T12:00:53.754Z,15.90
2023-03-10T12:03:26.004Z,15.68
2023-03-10T12:05:58.198Z,14.07
2023-03-10T12:08:29.448Z,13.43
2023-03-10T12:10:59.671Z,16.23
2023-03-10T12:13:36.106Z,17.13
2023-03-10T12:16:06.159Z,14.82
2023-03-10T12:18:34.004Z,17.42
2023-03-10T12:21:36.671Z,13.25
2023-03-10T12:24:04.580Z,13.27
2023-03-10T12:26:44.833Z,16.33
2023-03-10T12:29:21.073Z,14.40
2023-03-10T12:31:52.717Z,18.15
2023-03-10T12:34:24.676Z,14.18
2023-03-10T12:36:54.604Z,15.52
2023-03-10T12:39:32.679Z,14.77
2023-03-10T12:42:01.600Z,16.70
2023-03-10T12:44:46.747Z,14.18
2023-03-10T12:47:19.805Z,13.20
2023-03-10T12:49:58.461Z,13.75
2023-03-10T12:52:46.382Z,15.88
2023-03-10T12:55:24.576Z,17.08
2023-03-10T12:57:56.657Z,18.63
2023-03-10T13:00:41.063Z,14.75
2023-03-10T13:03:10.793Z,17.08
2023-03-10T13:05:55.517Z,16.25
2023-03-10T13:08:29.654Z,13.82
2023-03-10T13:13:31.042Z,13.35
2023-03-10T13:16:00.254Z,15.70
2023-03-10T13:18:27.448Z,14.55
2023-03-10T13:20:54.591Z,10.80
2023-03-10T13:23:22.972Z,13.73
2023-03-10T13:25:58.634Z,13.27
2023-03-10T13:28:28.208Z,14.10
2023-03-10T13:31:16.436Z,16.00
2023-03-10T13:33:52.990Z,12.20
2023-03-10T13:36:26.662Z,15.45
2023-03-10T13:38:53.762Z,17.63
2023-03-10T13:41:20.621Z,12.15
2023-03-10T13:43:51.362Z,13.77
2023-03-10T13:46:33.110Z,16.23
2023-03-10T13:49:06.648Z,16.15
2023-03-10T13:51:38.019Z,16.52
2023-03-10T13:54:29.316Z,14.45
2023-03-10T13:57:21.238Z,16.67
2023-03-10T13:59:49.159Z,16.88
2023-03-10T14:02:30.513Z,13.38
2023-03-10T14:04:58.449Z,13.48
2023-03-10T14:07:30.969Z,16.13
2023-03-10T14:10:03.969Z,19.10
2023-03-10T14:12:43.137Z,18.50
2023-03-10T14:15:25.252Z,14.52
2023-03-10T14:18:07.787Z,14.90
2023-03-10T14:20:45.437Z,20.63
2023-03-10T14:23:21.546Z,15.20
2023-03-10T14:26:00.422Z,17.65
2023-03-10T14:28:32.452Z,13.13
2023-03-10T14:31:04.714Z,14.43
2023-03-10T14:33:31.803Z,15.23
2023-03-10T14:35:58.689Z,18.48
2023-03-10T14:38:25.540Z,11.77
2023-03-10T14:40:54.527Z,15.30
2023-03-10T14:43:26.892Z,14.48
2023-03-10T14:45:56.793Z,16.98
2023-03-10T14:48:25.510Z,13.45
2023-03-10T14:50:53.393Z,9.82
2023-03-10T14:53:24.798Z,15.20
2023-03-10T14:55:56.978Z,13.77
2023-03-10T14:58:34.656Z,14.68
2023-03-10T15:01:02.267Z,13.82
2023-03-10T15:03:29.157Z,15.23
2023-03-10T15:05:55.989Z,12.10
2023-03-10T15:08:23.520Z,14.20
2023-03-10T15:10:52.010Z,12.18
2023-03-10T15:13:21.595Z,11.25
2023-03-10T15:15:49.287Z,12.38
2023-03-10T15:18:19.316Z,13.38
2023-03-10T15:20:46.611Z,10.95
2023-03-10T15:23:16.523Z,10.00
2023-03-10T15:25:46.075Z,13.20
2023-03-10T15:28:13.827Z,11.00
2023-03-10T15:30:40.947Z,12.55
2023-03-10T15:33:07.803Z,13.70
2023-03-10T15:35:35.243Z,16.23
2023-03-10T15:38:02.807Z,9.48
2023-03-10T15:40:31.910Z,10.98
2023-03-10T15:43:00.406Z,12.10
2023-03-10T15:45:29.914Z,14.70
2023-03-10T15:47:57.681Z,11.25
2023-03-10T15:50:24.702Z,13.05
2023-03-10T15:52:54.526Z,12.13
2023-03-10T15:55:21.624Z,13.30
2023-03-10T15:57:50.139Z,13.20
2023-03-10T16:00:22.387Z,10.63
2023-03-10T16:02:50.651Z,12.13
2023-03-10T16:05:18.516Z,9.93
2023-03-10T16:07:45.628Z,9.48
2023-03-10T16:10:14.913Z,20.77
2023-03-10T16:12:42.164Z,12.82
2023-03-10T16:15:09.756Z,13.20
2023-03-10T16:17:36.931Z,13.02
2023-03-10T16:20:06.957Z,15.05
2023-03-10T16:22:33.978Z,16.05
2023-03-10T16:25:00.998Z,17.65
2023-03-10T16:27:27.827Z,14.02
2023-03-10T16:29:54.640Z,12.70
2023-03-10T16:32:21.481Z,18.50
2023-03-10T16:34:48.323Z,14.82
2023-03-10T16:37:15.163Z,13.45
2023-03-10T16:39:43.375Z,16.45
2023-03-10T16:42:10.260Z,15.75
2023-03-10T16:44:37.165Z,14.35
2023-03-10T16:47:04.024Z,16.90
2023-03-10T16:49:32.308Z,15.48
2023-03-10T16:51:59.760Z,18.20
2023-03-10T16:54:26.889Z,17.75
2023-03-10T16:56:56.982Z,15.32
2023-03-10T16:59:25.269Z,20.17
2023-03-10T17:01:52.312Z,20.60
2023-03-10T17:04:19.894Z,16.35
2023-03-10T17:06:47.740Z,20.35
2023-03-10T17:09:15.745Z,16.38
2023-03-10T17:11:54.942Z,15.40
2023-03-10T17:14:23.044Z,20.08
2023-03-10T17:16:50.960Z,13.80
2023-03-10T17:19:20.536Z,15.98
2023-03-10T17:21:49.514Z,12.98
2023-03-10T17:24:17.943Z,12.82
2023-03-10T17:26:45.438Z,13.13
2023-03-10T17:29:12.356Z,12.48
2023-03-10T17:31:39.608Z,14.70
2023-03-10T17:34:10.435Z,9.15
2023-03-10T17:36:37.285Z,7.90
2023-03-10T17:39:05.414Z,6.85
2023-03-10T17:41:34.296Z,6.68
2023-03-10T17:44:01.290Z,9.02
2023-03-10T17:46:29.775Z,9.27
2023-03-10T17:48:57.210Z,8.70
2023-03-10T17:51:29.763Z,10.95
2023-03-10T17:53:58.762Z,5.28
2023-03-10T17:56:26.140Z,9.13
2023-03-10T17:58:54.292Z,7.30
2023-03-10T18:01:26.582Z,9.23
2023-03-10T18:03:56.017Z,9.70
2023-03-10T18:06:25.585Z,9.98
2023-03-10T18:08:55.922Z,9.18
2023-03-10T18:11:24.452Z,7.47
2023-03-10T18:13:51.773Z,9.45
2023-03-10T18:16:27.807Z,8.43
2023-03-10T18:18:56.151Z,12.45
2023-03-10T18:21:23.830Z,7.53
2023-03-10T18:23:51.585Z,12.40
2023-03-10T18:26:21.419Z,7.55
2023-03-10T18:28:48.387Z,9.10
2023-03-10T18:31:27.329Z,7.53
2023-03-10T18:33:54.286Z,9.23
2023-03-10T18:36:23.278Z,10.82
2023-03-10T21:59:36.271Z,2.22
2023-03-10T22:02:03.540Z,4.63
2023-03-10T22:04:30.586Z,0.70
2023-03-10T22:06:57.485Z,2.10
2023-03-10T22:09:24.301Z,5.82
2023-03-10T22:11:51.415Z,1.63
2023-03-10T22:14:18.227Z,2.10
2023-03-10T22:16:45.062Z,3.60
2023-03-10T22:19:11.867Z,1.50
2023-03-10T22:21:38.647Z,1.60
2023-03-10T22:24:05.617Z,4.05
2023-03-10T22:26:32.516Z,1.25
2023-03-10T22:29:00.339Z,1.48
2023-03-10T22:31:27.255Z,0.95
2023-03-10T22:33:54.096Z,2.97
2023-03-10T22:36:20.920Z,1.80
2023-03-10T22:38:47.737Z,1.50
2023-03-10T22:41:15.046Z,3.67
2023-03-10T22:43:42.267Z,1.02
2023-03-10T22:46:17.091Z,3.40
2023-03-10T22:48:44.389Z,4.72
2023-03-10T22:51:15.444Z,1.30
2023-03-10T22:53:42.298Z,6.90
2023-03-10T22:56:09.150Z,3.65
2023-03-10T22:58:37.604Z,7.60
2023-03-10T23:01:04.809Z,2.50
2023-03-10T23:03:34.088Z,0.85
2023-03-10T23:06:04.747Z,1.30
2023-03-10T23:08:31.898Z,2.00
2023-03-10T23:10:58.731Z,1.38
2023-03-10T23:13:35.915Z,0.77
2023-03-10T23:16:57.530Z,0.60
2023-03-10T23:19:28.475Z,2.92
2023-03-10T23:21:55.598Z,5.35
2023-03-10T23:24:22.592Z,1.10
2023-03-10T23:26:51.979Z,1.55
2023-03-10T23:29:19.028Z,5.53
2023-03-10T23:31:59.351Z,1.20
2023-03-10T23:34:26.626Z,1.30
2023-03-10T23:36:55.798Z,2.75
2023-03-10T23:39:22.578Z,6.05
2023-03-10T23:41:49.416Z,1.65
2023-03-10T23:44:16.379Z,2.05
2023-03-10T23:46:43.444Z,2.33
2023-03-10T23:49:10.252Z,1.55
2023-03-10T23:51:37.166Z,2.55
2023-03-10T23:54:04.093Z,1.15
2023-03-10T23:56:30.906Z,0.30
2023-03-10T23:58:58.866Z,4.95
